Time;durP1;ratioP1;P1;durP2;ratioP2;P2;SDS_P1;SDS_P2;PMS_P1;PMS_P2;Temp;Humidity;BMP_temperature;BMP_pressure;BME280_temperature;BME280_humidity;BME280_pressure;Samples;Min_cycle;Max_cycle;Signal;HPM_P1;HPM_P2
2022/09/15 00:00:48;;;;;;;7.05;3.72;;;14.50;99.90;;;;;;5025219;28;20029;-80
2022/09/15 00:03:14;;;;;;;6.70;2.45;;;14.40;99.90;;;;;;5037421;28;20120;-79
2022/09/15 00:05:40;;;;;;;6.05;2.95;;;14.50;99.90;;;;;;5043158;28;20601;-80
2022/09/15 00:08:05;;;;;;;7.55;3.75;;;14.70;99.90;;;;;;5045407;28;20109;-79
2022/09/15 00:10:31;;;;;;;4.90;2.90;;;14.70;99.90;;;;;;5031768;28;20096;-81
2022/09/15 00:12:57;;;;;;;7.13;3.28;;;14.60;99.90;;;;;;5040246;28;20052;-81
2022/09/15 00:15:23;;;;;;;6.95;4.05;;;14.60;99.90;;;;;;5043705;28;20037;-80
2022/09/15 00:17:51;;;;;;;7.95;3.95;;;14.40;99.90;;;;;;5027726;28;20045;-81
2022/09/15 00:20:18;;;;;;;5.40;3.17;;;14.70;99.90;;;;;;5042009;28;20052;-80
2022/09/15 00:22:44;;;;;;;12.40;4.82;;;14.40;99.90;;;;;;5034480;28;20411;-81
2022/09/15 00:25:10;;;;;;;11.35;4.85;;;14.40;99.90;;;;;;5032397;28;20045;-80
2022/09/15 00:27:36;;;;;;;6.63;3.20;;;14.60;99.90;;;;;;5034387;28;20049;-79
2022/09/15 00:30:03;;;;;;;3.97;3.03;;;14.50;99.90;;;;;;5031956;28;20064;-79
2022/09/15 00:32:29;;;;;;;6.60;5.20;;;14.70;99.90;;;;;;5027659;28;20041;-79
2022/09/15 00:34:55;;;;;;;11.35;6.28;;;14.70;99.90;;;;;;5041219;28;20037;-80
2022/09/15 00:37:21;;;;;;;7.10;4.20;;;14.60;99.90;;;;;;5034624;28;20052;-79
2022/09/15 00:39:47;;;;;;;7.85;5.40;;;14.40;99.90;;;;;;5027901;28;20500;-80
2022/09/15 00:42:15;;;;;;;5.18;4.38;;;14.50;99.90;;;;;;5029530;28;20076;-80
2022/09/15 00:44:57;;;;;;;13.27;6.43;;;14.50;99.90;;;;;;5035671;28;20412;-79
2022/09/15 00:47:33;;;;;;;8.85;4.53;;;14.50;99.90;;;;;;5031923;28;20068;-81
2022/09/15 00:50:06;;;;;;;9.02;4.78;;;14.50;99.90;;;;;;5024024;28;20081;-79
2022/09/15 00:52:47;;;;;;;9.70;5.93;;;14.40;99.90;;;;;;5025407;28;20450;-79
2022/09/15 00:55:13;;;;;;;7.63;5.28;;;14.50;99.90;;;;;;5045987;28;20127;-80
2022/09/15 00:57:53;;;;;;;10.57;5.20;;;14.40;99.90;;;;;;5034836;28;20184;-80
2022/09/15 01:00:21;;;;;;;9.18;4.72;;;14.30;99.90;;;;;;5025997;28;20041;-80
2022/09/15 01:02:48;;;;;;;10.20;4.68;;;14.40;99.90;;;;;;5036876;28;20038;-80
2022/09/15 01:05:17;;;;;;;11.38;4.32;;;14.10;99.90;;;;;;5028625;28;20029;-81
2022/09/15 01:08:00;;;;;;;5.03;3.40;;;14.30;99.90;;;;;;5044964;28;20049;-79
2022/09/15 01:10:32;;;;;;;6.70;3.92;;;14.20;99.90;;;;;;5027855;28;20045;-79
2022/09/15 01:13:02;;;;;;;9.45;4.13;;;14.10;99.90;;;;;;5017250;28;20076;-79
2022/09/15 01:15:36;;;;;;;;;;;14.10;99.90;;;;;;5024231;28;20552;-79
2022/09/15 01:18:13;;;;;;;6.55;3.83;;;14.00;99.90;;;;;;5021856;28;19947;-79
2022/09/15 01:21:08;;;;;;;9.20;2.75;;;14.10;99.90;;;;;;5024315;28;20041;-81
2022/09/15 01:24:10;;;;;;;4.20;3.22;;;14.20;99.90;;;;;;5029050;28;20049;-79
2022/09/15 01:26:51;;;;;;;6.60;2.78;;;14.10;99.90;;;;;;5017374;28;20048;-79
2022/09/15 01:29:45;;;;;;;6.82;3.88;;;14.10;99.90;;;;;;5031757;28;20128;-79
2022/09/15 01:35:35;;;;;;;6.65;2.97;;;14.20;99.90;;;;;;5020781;28;20045;-80
2022/09/15 01:38:09;;;;;;;5.90;1.40;;;14.10;99.90;;;;;;5028457;28;20067;-80
2022/09/15 01:44:18;;;;;;;6.93;1.15;;;14.20;99.90;;;;;;5016424;28;20050;-80
2022/09/15 01:46:47;;;;;;;4.03;1.08;;;14.20;99.90;;;;;;5026914;28;20108;-79
2022/09/15 01:49:24;;;;;;;3.40;1.00;;;14.10;99.90;;;;;;5045432;28;20037;-79
2022/09/15 01:51:52;;;;;;;2.90;0.50;;;14.20;99.90;;;;;;5027746;28;20055;-80
2022/09/15 01:54:31;;;;;;;4.35;0.80;;;14.20;99.90;;;;;;5032489;28;20131;-80
2022/09/15 01:56:57;;;;;;;9.65;1.13;;;14.30;99.90;;;;;;5024640;28;20384;-79
2022/09/15 01:59:23;;;;;;;7.18;0.82;;;14.30;99.90;;;;;;5024070;28;20073;-80
2022/09/15 02:01:56;;;;;;;4.95;0.88;;;14.20;99.90;;;;;;5026352;28;20131;-79
2022/09/15 02:04:35;;;;;;;6.28;1.15;;;14.20;99.90;;;;;;5032671;28;20056;-79
2022/09/15 02:07:15;;;;;;;8.10;1.77;;;14.20;99.90;;;;;;5025596;28;20040;-81
2022/09/15 02:09:56;;;;;;;8.68;1.85;;;14.10;99.90;;;;;;5044124;28;20045;-80
2022/09/15 02:12:34;;;;;;;7.28;1.25;;;14.10;99.90;;;;;;5041701;28;20049;-79
2022/09/15 02:15:04;;;;;;;4.60;0.73;;;14.10;99.90;;;;;;5027794;28;20044;-80
2022/09/15 02:17:34;;;;;;;4.90;1.45;;;14.20;99.90;;;;;;5027970;28;20094;-80
2022/09/15 02:20:09;;;;;;;7.03;2.10;;;14.20;99.90;;;;;;5048566;28;20083;-81
2022/09/15 02:22:39;;;;;;;6.10;2.28;;;14.20;99.90;;;;;;5035086;28;20099;-80
2022/09/15 02:25:07;;;;;;;9.35;1.75;;;14.20;99.90;;;;;;5042838;28;20389;-79
2022/09/15 02:27:38;;;;;;;8.50;1.17;;;14.10;99.90;;;;;;5037815;28;20492;-79
2022/09/15 02:30:10;;;;;;;11.68;1.42;;;14.20;99.90;;;;;;5021346;28;20033;-79
2022/09/15 02:32:40;;;;;;;7.47;1.05;;;14.20;99.90;;;;;;5037488;28;20037;-78
2022/09/15 02:35:08;;;;;;;5.95;0.88;;;14.30;99.90;;;;;;5037465;28;20444;-80
2022/09/15 02:37:37;;;;;;;6.18;1.05;;;14.20;99.90;;;;;;5027770;28;20041;-81
2022/09/15 02:40:04;;;;;;;5.40;0.95;;;14.20;99.90;;;;;;5043004;28;20073;-79
2022/09/15 02:42:31;;;;;;;15.00;2.17;;;14.20;99.90;;;;;;5031216;28;20045;-80
2022/09/15 02:44:58;;;;;;;10.68;2.40;;;14.30;99.90;;;;;;5026564;28;20128;-79
2022/09/15 02:47:24;;;;;;;7.05;1.92;;;14.30;99.90;;;;;;5027345;28;20046;-79
2022/09/15 02:49:50;;;;;;;4.97;1.23;;;14.30;99.90;;;;;;5037254;28;20044;-80
2022/09/15 02:52:16;;;;;;;4.03;0.50;;;14.40;99.90;;;;;;5047315;28;20068;-80
2022/09/15 02:54:41;;;;;;;5.30;0.50;;;14.30;99.90;;;;;;5037879;28;20440;-79
2022/09/15 02:57:08;;;;;;;9.35;0.60;;;14.30;99.90;;;;;;5045697;28;20148;-80
2022/09/15 03:02:19;;;;;;;4.53;1.35;;;14.30;99.90;;;;;;5041741;28;20041;-79
2022/09/15 03:04:48;;;;;;;4.45;0.88;;;14.30;99.90;;;;;;5023925;28;20457;-80
2022/09/15 03:07:14;;;;;;;6.50;2.10;;;14.40;99.90;;;;;;5027151;28;20063;-78
2022/09/15 03:09:40;;;;;;;6.22;2.17;;;14.20;99.90;;;;;;5042607;28;20487;-79
2022/09/15 03:12:06;;;;;;;3.53;0.98;;;14.20;99.90;;;;;;5030917;28;20044;-82
2022/09/15 03:14:32;;;;;;;5.22;0.90;;;14.20;99.90;;;;;;5022790;28;20037;-81
2022/09/15 03:16:59;;;;;;;7.50;0.90;;;14.20;99.90;;;;;;5030677;28;20052;-81
2022/09/15 03:19:25;;;;;;;7.03;1.33;;;14.20;99.90;;;;;;5045661;28;20090;-80
2022/09/15 03:21:50;;;;;;;6.88;0.80;;;14.20;99.90;;;;;;5030924;28;20049;-79
2022/09/15 03:24:18;;;;;;;8.88;2.03;;;14.20;99.90;;;;;;5026598;28;20961;-81
2022/09/15 03:26:43;;;;;;;1.10;0.82;;;14.20;99.90;;;;;;5030060;28;20061;-80
2022/09/15 03:29:09;;;;;;;4.25;1.15;;;14.20;99.90;;;;;;5041493;28;20088;-80
2022/09/15 03:31:34;;;;;;;5.10;1.35;;;14.20;99.90;;;;;;5032022;28;20053;-79
2022/09/15 03:34:00;;;;;;;2.67;1.02;;;14.20;99.90;;;;;;5036722;28;20041;-79
2022/09/15 03:36:25;;;;;;;10.60;3.10;;;14.20;99.90;;;;;;5025788;28;20397;-80
2022/09/15 03:38:51;;;;;;;4.20;0.90;;;14.10;99.90;;;;;;5032327;28;20049;-80
2022/09/15 03:41:17;;;;;;;6.30;1.02;;;14.10;99.90;;;;;;5031972;28;20037;-81
2022/09/15 03:43:43;;;;;;;5.10;0.55;;;14.10;99.90;;;;;;5014852;28;20063;-79
2022/09/15 03:46:10;;;;;;;9.10;1.35;;;14.20;99.90;;;;;;5018273;28;20476;-80
2022/09/15 03:48:36;;;;;;;4.13;1.05;;;14.10;99.90;;;;;;5008647;28;20056;-79
2022/09/15 03:51:03;;;;;;;9.57;1.60;;;14.00;99.90;;;;;;5020880;28;20121;-80
2022/09/15 03:53:32;;;;;;;6.07;1.42;;;14.10;99.90;;;;;;5027246;28;20061;-80
2022/09/15 03:56:23;;;;;;;8.70;1.55;;;14.00;99.90;;;;;;5027294;28;20059;-79
2022/09/15 03:58:49;;;;;;;3.35;0.65;;;14.00;99.90;;;;;;5027648;28;20045;-78
2022/09/15 04:01:17;;;;;;;7.97;1.98;;;13.90;99.90;;;;;;5025279;28;20048;-78
2022/09/15 04:03:42;;;;;;;5.03;1.35;;;14.00;99.90;;;;;;5027755;28;20033;-79
2022/09/15 04:06:08;;;;;;;10.50;2.25;;;14.00;99.90;;;;;;5032152;28;20045;-80
2022/09/15 04:08:33;;;;;;;4.78;1.35;;;14.00;99.90;;;;;;5046138;28;20132;-80
2022/09/15 04:11:04;;;;;;;5.50;0.90;;;14.00;99.90;;;;;;5032165;28;20412;-79
2022/09/15 04:13:30;;;;;;;2.53;0.40;;;14.10;99.90;;;;;;5042982;28;20466;-79
2022/09/15 04:16:08;;;;;;;4.55;1.13;;;14.00;99.90;;;;;;5040249;28;20302;-79
2022/09/15 04:18:34;;;;;;;3.55;0.80;;;14.10;99.90;;;;;;5039202;28;20041;-80
2022/09/15 04:21:02;;;;;;;3.85;0.63;;;14.10;99.90;;;;;;5033554;28;20038;-80
2022/09/15 04:23:28;;;;;;;3.85;1.75;;;14.10;99.90;;;;;;5037246;28;20403;-79
2022/09/15 04:25:59;;;;;;;3.28;1.10;;;14.10;99.90;;;;;;5025639;28;20076;-79
2022/09/15 04:28:26;;;;;;;3.90;0.73;;;14.10;99.90;;;;;;5041519;28;20412;-80
2022/09/15 04:31:01;;;;;;;5.15;1.77;;;14.10;99.90;;;;;;5033247;28;20446;-78
2022/09/15 04:33:26;;;;;;;4.60;0.98;;;14.10;99.90;;;;;;5023503;28;20053;-79
2022/09/15 04:36:00;;;;;;;6.80;1.42;;;14.20;99.90;;;;;;5022216;28;20033;-80
2022/09/15 04:38:26;;;;;;;5.97;1.30;;;14.20;99.90;;;;;;5025152;28;20521;-80
2022/09/15 04:40:52;;;;;;;7.32;1.83;;;14.20;99.90;;;;;;5027250;28;20407;-81
2022/09/15 04:43:18;;;;;;;12.43;2.42;;;14.20;99.90;;;;;;5026447;28;20087;-79
2022/09/15 04:45:43;;;;;;;8.07;1.13;;;14.20;99.90;;;;;;5032908;28;20041;-79
2022/09/15 04:48:09;;;;;;;5.38;1.35;;;14.20;99.90;;;;;;5030006;28;20043;-80
2022/09/15 04:50:34;;;;;;;6.82;1.60;;;14.20;99.90;;;;;;5023174;28;20045;-77
2022/09/15 04:53:00;;;;;;;5.13;1.05;;;14.20;99.90;;;;;;5024473;28;20397;-80
2022/09/15 04:55:26;;;;;;;10.32;1.80;;;14.20;99.90;;;;;;5028267;28;20049;-79
2022/09/15 04:57:51;;;;;;;7.60;1.20;;;14.20;99.90;;;;;;5021571;28;20045;-80
2022/09/15 05:00:17;;;;;;;7.40;1.50;;;14.20;99.90;;;;;;5020446;28;20034;-79
2022/09/15 05:02:44;;;;;;;5.13;1.33;;;14.10;99.90;;;;;;5021261;28;20452;-80
2022/09/15 05:05:10;;;;;;;3.92;0.90;;;14.20;99.90;;;;;;5025681;28;20049;-79
2022/09/15 05:07:35;;;;;;;4.70;0.75;;;14.10;99.90;;;;;;5043879;28;20044;-80
2022/09/15 05:10:01;;;;;;;7.85;1.90;;;14.10;99.90;;;;;;5021919;28;20041;-81
2022/09/15 05:12:27;;;;;;;7.25;1.45;;;14.10;99.90;;;;;;5028432;28;20049;-80
2022/09/15 05:14:52;;;;;;;6.35;1.02;;;14.10;99.90;;;;;;5045010;28;20048;-81
2022/09/15 05:17:18;;;;;;;14.52;3.35;;;14.10;99.90;;;;;;5031493;28;20432;-78
2022/09/15 05:19:45;;;;;;;6.43;1.33;;;14.10;99.90;;;;;;5045402;28;20045;-80
2022/09/15 05:22:10;;;;;;;4.80;1.42;;;14.00;99.90;;;;;;5028969;28;20037;-81
2022/09/15 05:24:36;;;;;;;3.70;0.98;;;14.00;99.90;;;;;;5026970;28;20057;-83
2022/09/15 05:27:01;;;;;;;8.23;1.42;;;14.00;99.90;;;;;;5030530;28;20045;-82
2022/09/15 05:29:27;;;;;;;7.10;2.17;;;14.00;99.90;;;;;;5026487;28;20050;-83
2022/09/15 05:31:53;;;;;;;9.00;1.25;;;14.00;99.90;;;;;;5036191;28;20052;-80
2022/09/15 05:34:18;;;;;;;8.85;1.10;;;14.00;99.90;;;;;;5025024;28;20042;-79
2022/09/15 05:36:44;;;;;;;8.15;1.92;;;14.00;99.90;;;;;;5021840;28;20115;-82
2022/09/15 05:39:10;;;;;;;4.72;1.05;;;14.00;99.90;;;;;;5030274;28;20037;-79
2022/09/15 05:41:35;;;;;;;22.58;3.17;;;14.00;99.90;;;;;;5033398;28;20045;-81
2022/09/15 05:44:01;;;;;;;7.28;2.53;;;14.00;99.90;;;;;;5024663;28;20288;-79
2022/09/15 05:46:27;;;;;;;3.50;1.27;;;14.00;99.90;;;;;;5019972;28;20049;-80
2022/09/15 05:48:56;;;;;;;10.35;1.50;;;14.00;99.90;;;;;;5022146;28;20112;-81
2022/09/15 05:51:22;;;;;;;5.38;2.50;;;14.10;99.90;;;;;;5019228;28;20124;-79
2022/09/15 05:53:48;;;;;;;7.68;1.25;;;14.10;99.90;;;;;;5009404;28;20578;-78
2022/09/15 05:56:15;;;;;;;9.05;1.85;;;14.10;99.90;;;;;;5024141;28;20057;-79
2022/09/15 05:58:43;;;;;;;4.75;0.70;;;14.20;99.90;;;;;;5023213;28;20049;-78
2022/09/15 06:01:20;;;;;;;6.03;1.23;;;14.20;99.90;;;;;;5022230;28;20095;-78
2022/09/15 06:03:46;;;;;;;6.45;1.63;;;14.20;99.90;;;;;;5023568;28;20049;-76
2022/09/15 06:06:12;;;;;;;7.93;2.13;;;14.30;99.90;;;;;;5009469;28;20033;-79
2022/09/15 06:08:41;;;;;;;7.45;1.38;;;14.40;99.90;;;;;;5002581;28;20137;-79
2022/09/15 06:11:15;;;;;;;7.05;1.20;;;14.40;99.90;;;;;;5020182;28;20107;-80
2022/09/15 06:13:42;;;;;;;6.38;1.65;;;14.50;99.90;;;;;;5023787;28;20048;-79
2022/09/15 06:16:10;;;;;;;13.07;2.17;;;14.50;99.90;;;;;;5023431;28;20077;-79
2022/09/15 06:18:37;;;;;;;4.80;1.40;;;14.60;99.90;;;;;;5023730;28;20521;-79
2022/09/15 06:21:25;;;;;;;9.65;1.33;;;14.60;99.90;;;;;;5025184;28;20104;-80
2022/09/15 06:23:55;;;;;;;10.43;2.47;;;14.60;99.90;;;;;;5018831;28;20048;-78
2022/09/15 06:26:21;;;;;;;;;;;14.70;99.90;;;;;;5023794;28;20076;-80
2022/09/15 06:28:53;;;;;;;5.82;0.95;;;14.80;99.90;;;;;;5024800;28;20018;-79
2022/09/15 06:31:19;;;;;;;6.07;1.25;;;14.80;99.90;;;;;;5021681;28;20042;-80
2022/09/15 06:33:47;;;;;;;12.65;1.40;;;14.80;99.90;;;;;;5028256;28;20091;-79
2022/09/15 06:36:14;;;;;;;15.70;2.72;;;14.80;99.90;;;;;;5022545;28;20042;-79
2022/09/15 06:38:40;;;;;;;5.05;0.90;;;14.80;99.90;;;;;;5022268;28;20061;-79
2022/09/15 06:41:07;;;;;;;4.32;1.00;;;14.60;99.90;;;;;;5022694;28;20033;-78
2022/09/15 06:43:33;;;;;;;7.25;0.80;;;14.30;99.90;;;;;;5021249;28;20101;-78
2022/09/15 06:46:19;;;;;;;2.85;0.80;;;14.20;99.90;;;;;;5024224;28;20046;-77
2022/09/15 06:48:46;;;;;;;5.00;0.98;;;13.90;99.90;;;;;;5021786;28;20389;-80
2022/09/15 06:51:15;;;;;;;4.38;1.90;;;14.00;99.90;;;;;;5020654;28;20098;-80
2022/09/15 06:53:42;;;;;;;10.27;1.52;;;14.00;99.90;;;;;;5022459;28;20046;-79
2022/09/15 06:56:11;;;;;;;4.95;1.90;;;14.00;99.90;;;;;;5027234;28;20121;-84
2022/09/15 06:58:39;;;;;;;4.60;0.68;;;14.00;99.90;;;;;;5028941;28;20041;-77
2022/09/15 07:01:11;;;;;;;6.30;1.02;;;14.10;99.90;;;;;;5024599;28;20048;-79
2022/09/15 07:03:38;;;;;;;2.67;0.98;;;14.10;99.90;;;;;;5019826;28;20037;-79
2022/09/15 07:06:05;;;;;;;5.28;0.98;;;14.10;99.90;;;;;;5025152;28;20048;-80
2022/09/15 07:08:30;;;;;;;11.00;2.00;;;14.10;99.90;;;;;;5027576;28;20133;-81
2022/09/15 07:10:56;;;;;;;3.95;0.40;;;14.20;99.90;;;;;;5041249;28;20057;-81
2022/09/15 07:13:23;;;;;;;4.88;0.88;;;14.20;99.90;;;;;;5042301;28;20022;-81
2022/09/15 07:15:54;;;;;;;3.58;0.90;;;14.30;99.90;;;;;;5038461;28;20072;-81
2022/09/15 07:18:21;;;;;;;5.18;1.13;;;14.50;99.90;;;;;;5040139;28;20045;-79
2022/09/15 07:20:47;;;;;;;2.20;0.63;;;14.40;99.90;;;;;;5055827;28;20045;-81
2022/09/15 07:23:13;;;;;;;8.48;1.23;;;14.50;99.90;;;;;;5050165;28;20055;-80
2022/09/15 07:25:42;;;;;;;4.25;0.80;;;14.60;99.90;;;;;;5062293;28;20072;-80
2022/09/15 07:28:09;;;;;;;2.58;2.05;;;14.70;99.90;;;;;;5046881;28;20049;-80
2022/09/15 07:30:35;;;;;;;6.85;0.82;;;14.80;99.90;;;;;;5040553;28;20056;-81
2022/09/15 07:33:00;;;;;;;3.88;0.60;;;14.80;99.90;;;;;;5044330;28;20056;-80
2022/09/15 07:35:26;;;;;;;5.25;0.68;;;14.90;99.90;;;;;;5043807;28;20045;-80
2022/09/15 07:37:52;;;;;;;3.47;0.70;;;15.00;99.90;;;;;;5037200;28;20042;-80
2022/09/15 07:40:17;;;;;;;2.85;0.43;;;15.00;99.90;;;;;;5036881;28;20038;-77
2022/09/15 07:42:43;;;;;;;2.35;0.57;;;15.10;99.90;;;;;;5038386;28;20235;-79
2022/09/15 07:45:12;;;;;;;2.90;0.50;;;15.20;99.90;;;;;;5040493;28;20064;-82
2022/09/15 07:47:38;;;;;;;4.93;0.65;;;15.20;99.90;;;;;;5022595;28;20052;-83
2022/09/15 07:50:05;;;;;;;5.70;0.60;;;15.20;99.90;;;;;;5030824;28;20041;-78
2022/09/15 07:52:31;;;;;;;4.15;0.77;;;15.20;99.90;;;;;;4994799;28;1076154;-78
2022/09/15 07:54:56;;;;;;;4.63;0.70;;;15.20;99.90;;;;;;5034257;28;20045;-76
2022/09/15 07:57:22;;;;;;;4.10;1.17;;;15.20;99.90;;;;;;5031558;28;20034;-80
2022/09/15 07:59:48;;;;;;;8.30;1.33;;;15.20;99.90;;;;;;5032204;28;20120;-82
2022/09/15 08:02:18;;;;;;;6.35;1.42;;;15.20;99.90;;;;;;5032722;28;20496;-80
2022/09/15 08:04:44;;;;;;;;;;;15.20;99.90;;;;;;5035569;28;20404;-81
2022/09/15 08:07:10;;;;;;;4.15;1.00;;;15.20;99.90;;;;;;5028697;28;19929;-79
2022/09/15 08:09:37;;;;;;;8.07;1.00;;;15.40;99.90;;;;;;5029956;28;20479;-81
2022/09/15 08:12:04;;;;;;;6.30;1.20;;;15.70;99.90;;;;;;5026759;28;20049;-79
2022/09/15 08:14:32;;;;;;;4.78;1.00;;;15.90;99.90;;;;;;5036510;28;20041;-81
2022/09/15 08:16:59;;;;;;;10.13;1.85;;;16.20;99.90;;;;;;5029675;28;20136;-79
2022/09/15 08:19:35;;;;;;;2.17;0.70;;;16.40;99.90;;;;;;5039947;28;20045;-79
2022/09/15 08:22:01;;;;;;;4.05;1.13;;;16.60;99.90;;;;;;5031800;28;20456;-81
2022/09/15 08:24:27;;;;;;;11.50;1.63;;;16.70;99.90;;;;;;5026538;28;20045;-79
2022/09/15 08:26:53;;;;;;;2.80;0.70;;;16.60;99.90;;;;;;5025938;28;20044;-82
2022/09/15 08:29:19;;;;;;;8.20;1.10;;;16.50;99.90;;;;;;5040746;28;20048;-79
2022/09/15 08:31:46;;;;;;;5.60;1.27;;;16.50;99.90;;;;;;5036251;28;20160;-81
2022/09/15 08:34:13;;;;;;;3.15;1.00;;;16.40;99.90;;;;;;5025580;28;20047;-80
2022/09/15 08:36:39;;;;;;;9.80;1.30;;;16.40;99.90;;;;;;5023295;28;20455;-81
2022/09/15 08:39:05;;;;;;;7.75;1.48;;;16.30;99.90;;;;;;5026241;28;20060;-80
2022/09/15 08:41:43;;;;;;;6.78;0.98;;;16.40;99.90;;;;;;5026668;28;20038;-81
2022/09/15 08:44:30;;;;;;;10.52;1.17;;;16.40;99.90;;;;;;5032882;28;20088;-80
2022/09/15 08:47:24;;;;;;;2.45;0.70;;;16.50;99.90;;;;;;5024673;28;20050;-77
2022/09/15 08:50:01;;;;;;;6.00;1.17;;;16.50;99.90;;;;;;5025110;28;20045;-78
2022/09/15 08:52:37;;;;;;;6.78;1.10;;;16.60;99.90;;;;;;5026142;28;20068;-78
2022/09/15 08:55:13;;;;;;;5.30;0.95;;;16.70;99.90;;;;;;5025595;28;20409;-78
2022/09/15 08:57:39;;;;;;;6.55;1.50;;;16.70;99.90;;;;;;5009835;28;20069;-79
2022/09/15 09:00:12;;;;;;;7.45;1.33;;;16.70;99.90;;;;;;5006832;28;20477;-78
2022/09/15 09:02:57;;;;;;;5.72;1.05;;;16.70;99.90;;;;;;5011274;28;20042;-78
2022/09/15 09:05:50;;;;;;;7.38;0.70;;;16.90;99.90;;;;;;5023432;28;20041;-79
2022/09/15 09:08:35;;;;;;;2.78;1.17;;;16.90;99.90;;;;;;5024284;28;20073;-78
2022/09/15 09:11:33;;;;;;;1.67;0.40;;;16.80;99.90;;;;;;5026374;28;20042;-79
2022/09/15 09:13:59;;;;;;;3.08;0.30;;;16.80;99.90;;;;;;5023226;28;20443;-78
2022/09/15 09:16:29;;;;;;;3.42;0.55;;;16.80;99.90;;;;;;5027271;28;20037;-79
2022/09/15 09:19:12;;;;;;;;;;;16.80;99.90;;;;;;5026159;28;20068;-80
2022/09/15 09:21:42;;;;;;;2.92;1.00;;;17.00;99.90;;;;;;5025214;28;19924;-80
2022/09/15 09:24:21;;;;;;;2.38;0.80;;;17.10;99.90;;;;;;5024935;28;20049;-78
2022/09/15 09:26:52;;;;;;;8.07;2.15;;;17.20;99.90;;;;;;5023812;28;20120;-78
2022/09/15 09:29:25;;;;;;;4.97;0.98;;;17.10;99.90;;;;;;5027588;28;20077;-79
2022/09/15 09:31:53;;;;;;;6.22;0.82;;;17.10;99.90;;;;;;5020529;28;20068;-78
2022/09/15 09:34:37;;;;;;;3.75;0.52;;;17.30;99.90;;;;;;5028665;28;20049;-78
2022/09/15 09:37:11;;;;;;;4.45;1.45;;;17.30;99.90;;;;;;5022901;28;20037;-80
2022/09/15 09:39:37;;;;;;;4.20;0.90;;;17.60;99.90;;;;;;5031044;28;20098;-82
2022/09/15 09:42:04;;;;;;;3.42;0.80;;;17.70;99.90;;;;;;5046024;28;20450;-78
2022/09/15 09:44:31;;;;;;;4.13;0.85;;;17.90;99.90;;;;;;5043799;28;20041;-77
2022/09/15 09:46:58;;;;;;;4.70;0.60;;;17.40;99.90;;;;;;5022602;28;20049;-78
2022/09/15 09:49:25;;;;;;;7.32;0.82;;;16.80;99.90;;;;;;5021040;28;20124;-77
2022/09/15 09:51:58;;;;;;;3.83;1.05;;;16.60;99.90;;;;;;5022785;28;20057;-78
2022/09/15 09:54:30;;;;;;;3.00;0.63;;;16.50;99.90;;;;;;5022581;28;20587;-78
2022/09/15 09:57:18;;;;;;;4.35;1.10;;;16.40;99.90;;;;;;5023390;28;20099;-78
2022/09/15 09:59:48;;;;;;;1.77;0.50;;;16.30;99.90;;;;;;5005921;28;20168;-77
2022/09/15 10:02:16;;;;;;;6.57;1.00;;;16.20;99.90;;;;;;5021339;28;20045;-77
2022/09/15 10:04:50;;;;;;;8.57;0.95;;;16.20;99.90;;;;;;5014293;28;20044;-77
2022/09/15 10:07:20;;;;;;;7.03;1.38;;;16.10;99.90;;;;;;5021929;28;20038;-77
2022/09/15 10:10:00;;;;;;;3.90;0.90;;;16.10;99.90;;;;;;5019437;28;20049;-76
2022/09/15 10:12:32;;;;;;;5.28;1.23;;;16.10;99.90;;;;;;5024739;28;20049;-77
2022/09/15 10:15:04;;;;;;;8.48;0.95;;;16.60;99.90;;;;;;5022351;28;20052;-79
2022/09/15 10:17:38;;;;;;;6.85;1.17;;;17.10;99.90;;;;;;5018708;28;20487;-77
2022/09/15 10:20:19;;;;;;;3.95;1.02;;;17.50;99.90;;;;;;5020189;28;20046;-78
2022/09/15 10:22:44;;;;;;;3.35;0.77;;;17.80;99.90;;;;;;5015743;28;20163;-79
2022/09/15 10:25:19;;;;;;;4.15;0.93;;;17.80;99.90;;;;;;5020586;28;20400;-77
2022/09/15 10:28:13;;;;;;;6.43;0.90;;;17.10;99.90;;;;;;5028633;28;20040;-77
2022/09/15 10:31:06;;;;;;;6.45;1.75;;;16.90;99.90;;;;;;5029389;28;20123;-77
2022/09/15 10:33:43;;;;;;;6.38;0.95;;;16.40;99.90;;;;;;5016295;28;20500;-80
2022/09/15 10:36:29;;;;;;;5.30;0.90;;;16.30;99.90;;;;;;5027647;28;20049;-79
2022/09/15 10:39:17;;;;;;;4.40;1.50;;;16.30;99.90;;;;;;5027522;28;20455;-78
2022/09/15 10:42:11;;;;;;;3.47;0.60;;;16.30;99.90;;;;;;5026321;28;20397;-80
2022/09/15 10:44:51;;;;;;;3.58;0.90;;;16.40;99.90;;;;;;5025041;28;20624;-78
2022/09/15 10:47:29;;;;;;;7.35;1.70;;;16.50;99.90;;;;;;5019204;28;20396;-79
2022/09/15 10:50:31;;;;;;;2.92;0.77;;;16.60;99.90;;;;;;5024666;28;20041;-81
2022/09/15 10:53:24;;;;;;;3.85;1.83;;;16.60;99.90;;;;;;5021490;28;20104;-80
2022/09/15 10:56:07;;;;;;;1.70;0.50;;;16.60;99.90;;;;;;5025806;28;20057;-81
2022/09/15 10:58:55;;;;;;;5.70;1.20;;;16.80;99.90;;;;;;5020659;28;20048;-79
2022/09/15 11:01:29;;;;;;;2.90;1.42;;;16.80;99.90;;;;;;5027499;28;20120;-81
2022/09/15 11:04:33;;;;;;;9.27;1.55;;;16.90;99.90;;;;;;5016985;28;20052;-82
2022/09/15 11:07:25;;;;;;;5.10;0.70;;;16.90;99.90;;;;;;5024996;28;20049;-78
2022/09/15 11:10:05;;;;;;;3.47;1.15;;;16.90;99.90;;;;;;5003377;28;20053;-80
2022/09/15 11:12:51;;;;;;;;;;;17.00;99.90;;;;;;5009292;28;20141;-80
2022/09/15 11:15:56;;;;;;;1.95;0.70;;;17.10;99.90;;;;;;5023505;28;20096;-80
2022/09/15 11:18:24;;;;;;;6.38;0.60;;;17.10;99.90;;;;;;5018476;28;20042;-80
2022/09/15 11:21:17;;;;;;;0.60;0.20;;;17.30;99.90;;;;;;5024455;28;20120;-79
2022/09/15 11:24:13;;;;;;;1.40;0.43;;;17.60;99.90;;;;;;5027788;28;20053;-79
2022/09/15 11:26:53;;;;;;;4.22;0.70;;;17.60;99.90;;;;;;5026530;28;20037;-79
2022/09/15 11:29:27;;;;;;;2.85;0.75;;;17.90;99.90;;;;;;5027033;28;20050;-78
2022/09/15 11:32:03;;;;;;;1.85;0.65;;;18.00;99.90;;;;;;5015960;28;20042;-78
2022/09/15 11:34:42;;;;;;;0.60;0.47;;;18.40;99.90;;;;;;5026747;28;20061;-79
2022/09/15 11:37:22;;;;;;;1.95;0.30;;;18.30;99.90;;;;;;5026054;28;20507;-77
2022/09/15 11:39:55;;;;;;;1.48;0.20;;;18.30;99.90;;;;;;5029733;28;20053;-77
2022/09/15 11:42:33;;;;;;;3.03;0.68;;;18.30;99.90;;;;;;5023219;28;20459;-79
2022/09/15 11:45:00;;;;;;;1.58;0.55;;;18.40;99.90;;;;;;5024451;28;20045;-80
2022/09/15 11:47:46;;;;;;;2.42;0.30;;;18.60;99.90;;;;;;5025140;28;20045;-78
2022/09/15 11:50:44;;;;;;;4.10;0.95;;;18.80;99.90;;;;;;5016074;28;20374;-78
2022/09/15 11:53:39;;;;;;;2.78;0.40;;;18.70;99.90;;;;;;5017584;28;20122;-75
2022/09/15 11:56:26;;;;;;;3.83;0.50;;;18.70;99.90;;;;;;5016541;28;20068;-73
2022/09/15 11:59:19;;;;;;;2.83;0.90;;;18.40;99.90;;;;;;5024777;28;20172;-79
2022/09/15 12:01:55;;;;;;;1.42;0.40;;;18.40;99.90;;;;;;5030509;28;20045;-77
2022/09/15 12:04:28;;;;;;;2.75;0.60;;;18.40;99.90;;;;;;5023694;28;20544;-78
2022/09/15 12:07:12;;;;;;;2.08;0.35;;;18.10;99.90;;;;;;5020370;28;20068;-78
2022/09/15 12:09:39;;;;;;;3.72;1.05;;;17.90;99.90;;;;;;5028849;28;20805;-78
2022/09/15 12:12:13;;;;;;;4.72;0.82;;;18.10;99.90;;;;;;5024606;28;20038;-78
2022/09/15 12:14:47;;;;;;;2.72;0.50;;;18.40;99.90;;;;;;5025108;28;20046;-78
2022/09/15 12:17:20;;;;;;;4.53;1.25;;;18.50;99.90;;;;;;5004816;28;20404;-77
2022/09/15 12:20:04;;;;;;;6.10;1.65;;;18.60;99.90;;;;;;5021481;28;20040;-77
2022/09/15 12:23:06;;;;;;;5.57;0.65;;;18.60;99.90;;;;;;5019137;28;20815;-77
2022/09/15 12:25:58;;;;;;;4.53;0.60;;;18.20;99.90;;;;;;5024250;28;20045;-77
2022/09/15 12:28:23;;;;;;;1.55;0.52;;;17.80;99.90;;;;;;5025445;28;20378;-76
2022/09/15 12:31:21;;;;;;;2.05;0.43;;;17.30;99.90;;;;;;5022727;28;20046;-77
2022/09/15 12:33:57;;;;;;;2.60;1.33;;;17.10;99.90;;;;;;5017880;28;20504;-78
2022/09/15 12:36:29;;;;;;;5.63;1.00;;;17.20;99.90;;;;;;5021461;28;20813;-79
2022/09/15 12:38:55;;;;;;;3.13;0.55;;;17.40;99.90;;;;;;5022593;28;20080;-78
2022/09/15 12:41:21;;;;;;;5.10;0.60;;;17.50;99.90;;;;;;5024476;28;20701;-77
2022/09/15 12:44:01;;;;;;;4.50;0.63;;;17.50;99.90;;;;;;5025528;28;20092;-78
2022/09/15 12:46:27;;;;;;;4.43;0.82;;;17.50;99.90;;;;;;5024009;28;20041;-78
2022/09/15 12:49:01;;;;;;;8.27;1.25;;;17.40;99.90;;;;;;5019818;28;20052;-79
2022/09/15 12:51:28;;;;;;;6.25;0.85;;;17.30;99.90;;;;;;5022873;28;20136;-76
2022/09/15 12:53:58;;;;;;;5.13;1.45;;;17.20;99.90;;;;;;5024036;28;20152;-77
2022/09/15 12:56:30;;;;;;;6.10;1.50;;;17.20;99.90;;;;;;5022121;28;20431;-78
2022/09/15 12:59:01;;;;;;;5.70;1.50;;;17.30;99.90;;;;;;5023864;28;20045;-79
2022/09/15 13:01:27;;;;;;;3.65;0.68;;;17.10;99.90;;;;;;5018282;28;20136;-77
2022/09/15 13:03:58;;;;;;;12.35;1.92;;;17.40;99.90;;;;;;5022590;28;20124;-77
2022/09/15 13:06:31;;;;;;;5.05;1.77;;;17.30;99.90;;;;;;5022552;28;20052;-76
2022/09/15 13:09:00;;;;;;;5.57;1.10;;;17.30;99.90;;;;;;5019579;28;20107;-77
2022/09/15 13:11:33;;;;;;;6.53;1.15;;;17.40;99.90;;;;;;5023081;28;20121;-78
2022/09/15 13:14:09;;;;;;;5.28;1.13;;;17.50;99.90;;;;;;5024895;28;20038;-78
2022/09/15 13:16:47;;;;;;;2.28;0.45;;;17.50;99.90;;;;;;5019854;28;20033;-77
2022/09/15 13:19:40;;;;;;;1.17;0.40;;;17.50;99.90;;;;;;5018691;28;20049;-78
2022/09/15 13:22:26;;;;;;;3.30;0.47;;;17.50;99.90;;;;;;5018441;28;20037;-78